createdAt,value
2018-04-13T00:01:29.581Z,8.63
2018-04-13T00:03:57.110Z,8.17
2018-04-13T00:06:24.636Z,8.73
2018-04-13T00:08:52.208Z,8.00
2018-04-13T00:11:19.790Z,9.07
2018-04-13T00:13:47.371Z,8.57
2018-04-13T00:16:14.948Z,9.57
2018-04-13T00:18:42.537Z,9.17
2018-04-13T00:21:10.119Z,8.70
2018-04-13T00:23:37.666Z,9.17
2018-04-13T00:26:05.364Z,8.57
2018-04-13T00:28:32.896Z,8.00
2018-04-13T00:31:00.438Z,8.13
2018-04-13T00:33:28.032Z,9.40
2018-04-13T00:35:55.562Z,8.00
2018-04-13T00:38:24.033Z,8.20
2018-04-13T00:40:51.626Z,9.20
2018-04-13T00:43:19.200Z,9.13
2018-04-13T00:45:46.828Z,8.47
2018-04-13T00:48:14.363Z,8.80
2018-04-13T00:50:41.954Z,9.10
2018-04-13T00:53:21.324Z,8.63
2018-04-13T00:55:48.925Z,9.33
2018-04-13T00:58:17.482Z,9.37
2018-04-13T01:00:45.022Z,8.87
2018-04-13T01:03:12.854Z,8.90
2018-04-13T01:05:40.828Z,9.20
2018-04-13T01:08:08.406Z,8.70
2018-04-13T01:10:36.492Z,8.37
2018-04-13T01:13:05.010Z,8.67
2018-04-13T01:15:32.620Z,9.27
2018-04-13T01:18:00.416Z,8.70
2018-04-13T01:20:27.953Z,8.00
2018-04-13T01:22:55.489Z,8.37
2018-04-13T01:25:23.091Z,9.00
2018-04-13T01:27:51.050Z,9.20
2018-04-13T01:30:18.577Z,8.93
2018-04-13T01:32:46.104Z,8.87
2018-04-13T01:35:13.680Z,9.67
2018-04-13T01:37:41.252Z,9.73
2018-04-13T01:40:09.225Z,10.37
2018-04-13T01:42:37.120Z,9.13
2018-04-13T01:45:04.882Z,9.73
2018-04-13T01:47:32.436Z,10.07
2018-04-13T01:50:00.288Z,10.07
2018-04-13T01:52:27.895Z,10.20
2018-04-13T01:54:55.501Z,10.13
2018-04-13T01:57:23.046Z,9.13
2018-04-13T01:59:50.865Z,11.30
2018-04-13T02:02:18.426Z,11.70
2018-04-13T02:04:45.969Z,10.23
2018-04-13T02:07:13.641Z,10.17
2018-04-13T02:09:41.173Z,10.63
2018-04-13T02:12:08.768Z,10.07
2018-04-13T02:14:36.826Z,10.17
2018-04-13T02:17:04.590Z,11.17
2018-04-13T02:19:32.129Z,11.63
2018-04-13T02:21:59.709Z,12.53
2018-04-13T02:24:29.236Z,12.17
2018-04-13T02:26:57.052Z,12.87
2018-04-13T02:29:24.602Z,12.70
2018-04-13T02:31:52.185Z,12.07
2018-04-13T02:34:19.973Z,12.33
2018-04-13T02:36:47.445Z,12.70
2018-04-13T02:39:15.457Z,12.67
2018-04-13T02:41:42.996Z,12.47
2018-04-13T02:44:10.545Z,12.53
2018-04-13T02:46:38.138Z,12.13
2018-04-13T02:49:06.722Z,12.20
2018-04-13T02:51:35.412Z,12.33
2018-04-13T02:54:02.960Z,13.23
2018-04-13T02:56:30.556Z,12.27
2018-04-13T02:58:58.657Z,13.23
2018-04-13T03:01:26.188Z,14.10
2018-04-13T03:03:53.771Z,12.73
2018-04-13T03:06:21.314Z,13.73
2018-04-13T03:08:48.912Z,13.37
2018-04-13T03:11:16.453Z,12.87
2018-04-13T03:13:44.061Z,14.10
2018-04-13T03:16:11.637Z,14.13
2018-04-13T03:18:39.178Z,15.37
2018-04-13T03:21:06.763Z,14.60
2018-04-13T03:23:34.345Z,14.63
2018-04-13T03:26:01.878Z,14.53
2018-04-13T03:28:29.420Z,15.43
2018-04-13T03:30:56.965Z,14.77
2018-04-13T03:33:24.670Z,14.83
2018-04-13T03:35:52.270Z,14.67
2018-04-13T03:38:19.849Z,15.70
2018-04-13T03:40:47.388Z,14.20
2018-04-13T03:43:15.128Z,15.50
2018-04-13T03:45:42.935Z,14.53
2018-04-13T03:48:11.625Z,14.77
2018-04-13T03:50:39.390Z,13.87
2018-04-13T03:53:06.933Z,15.77
2018-04-13T03:55:34.825Z,14.80
2018-04-13T03:58:02.813Z,15.20
2018-04-13T04:00:30.413Z,15.63
2018-04-13T04:02:57.955Z,15.63
2018-04-13T04:05:25.537Z,14.90
2018-04-13T04:07:53.398Z,14.70
2018-04-13T04:10:21.642Z,17.87
2018-04-13T04:12:49.176Z,17.27
2018-04-13T04:15:16.750Z,17.13
2018-04-13T04:17:44.294Z,17.43
2018-04-13T04:20:24.853Z,20.30
2018-04-13T04:23:04.720Z,20.47
2018-04-13T04:25:51.508Z,15.83
2018-04-13T04:28:19.419Z,16.00
2018-04-13T04:30:47.917Z,18.77
2018-04-13T04:33:15.470Z,17.63
2018-04-13T04:35:43.633Z,18.07
2018-04-13T04:38:11.394Z,16.30
2018-04-13T04:40:38.932Z,19.77
2018-04-13T04:43:06.669Z,19.83
2018-04-13T04:45:34.259Z,24.85
2018-04-13T04:48:01.812Z,24.63
2018-04-13T04:50:29.396Z,25.57
2018-04-13T04:52:56.953Z,26.50
2018-04-13T04:55:24.546Z,25.77
2018-04-13T04:57:52.438Z,24.45
2018-04-13T05:00:20.505Z,23.13
2018-04-13T05:02:48.068Z,20.13
2018-04-13T05:05:15.673Z,20.17
2018-04-13T05:07:44.075Z,20.17
2018-04-13T05:10:12.648Z,18.30
2018-04-13T05:12:40.228Z,18.60
2018-04-13T05:15:07.962Z,18.50
2018-04-13T05:17:35.541Z,17.53
2018-04-13T05:20:03.081Z,19.10
2018-04-13T05:22:30.684Z,18.27
2018-04-13T05:24:58.302Z,17.33
2018-04-13T05:27:26.382Z,17.83
2018-04-13T05:29:54.451Z,21.13
2018-04-13T05:32:22.566Z,25.00
2018-04-13T05:34:51.222Z,25.87
2018-04-13T05:37:18.765Z,20.70
2018-04-13T05:39:46.831Z,23.83
2018-04-13T05:42:14.364Z,25.93
2018-04-13T05:44:42.260Z,24.33
2018-04-13T05:47:11.430Z,24.13
2018-04-13T05:49:39.022Z,23.07
2018-04-13T05:52:06.780Z,25.23
2018-04-13T05:54:34.336Z,21.70
2018-04-13T05:57:02.006Z,23.03
2018-04-13T05:59:29.743Z,23.90
2018-04-13T06:01:57.351Z,21.63
2018-04-13T06:04:24.889Z,22.33
2018-04-13T06:06:53.301Z,23.47
2018-04-13T06:09:22.565Z,22.60
2018-04-13T06:11:51.086Z,21.83
2018-04-13T06:14:18.633Z,21.87
2018-04-13T06:16:46.261Z,24.20
2018-04-13T06:19:13.810Z,23.03
2018-04-13T06:21:41.416Z,21.50
2018-04-13T06:24:08.954Z,22.07
2018-04-13T06:26:36.510Z,20.92
2018-04-13T06:29:04.104Z,20.60
2018-04-13T06:31:31.648Z,20.67
2018-04-13T06:33:59.403Z,18.33
2018-04-13T06:36:26.980Z,18.43
2018-04-13T06:38:54.565Z,19.70
2018-04-13T06:41:22.121Z,19.00
2018-04-13T06:43:50.546Z,20.05
2018-04-13T06:46:18.121Z,17.70
2018-04-13T06:48:45.783Z,18.23
2018-04-13T06:51:13.312Z,18.87
2018-04-13T06:53:40.930Z,20.20
2018-04-13T06:56:08.468Z,19.07
2018-04-13T06:58:36.071Z,18.17
2018-04-13T07:01:03.726Z,21.07
2018-04-13T07:03:31.260Z,20.27
2018-04-13T07:05:58.800Z,19.63
2018-04-13T07:08:26.381Z,19.93
2018-04-13T07:10:53.964Z,22.83
2018-04-13T07:13:21.560Z,22.70
2018-04-13T07:15:49.188Z,22.57
2018-04-13T07:18:16.729Z,20.13
2018-04-13T07:20:45.271Z,19.77
2018-04-13T07:23:12.950Z,19.43
2018-04-13T07:25:40.558Z,19.20
2018-04-13T07:28:08.169Z,19.57
2018-04-13T07:30:35.713Z,20.47
2018-04-13T07:33:03.331Z,24.43
2018-04-13T07:35:30.941Z,23.43
2018-04-13T07:37:58.924Z,22.00
2018-04-13T07:40:26.098Z,19.87
2018-04-13T07:42:54.619Z,22.17
2018-04-13T07:45:22.214Z,20.57
2018-04-13T07:47:49.799Z,23.35
2018-04-13T07:50:17.949Z,22.48
2018-04-13T07:52:46.369Z,22.73
2018-04-13T07:55:13.941Z,23.90
2018-04-13T07:57:41.480Z,19.80
2018-04-13T08:00:09.334Z,21.17
2018-04-13T08:02:36.889Z,22.62
2018-04-13T08:05:04.537Z,20.17
2018-04-13T08:07:32.173Z,19.80
2018-04-13T08:09:59.864Z,21.77
2018-04-13T08:12:27.325Z,22.33
2018-04-13T08:14:54.985Z,27.03
2018-04-13T08:17:22.530Z,25.70
2018-04-13T08:19:50.078Z,25.57
2018-04-13T08:22:17.677Z,22.70
2018-04-13T08:24:45.210Z,21.63
2018-04-13T08:27:12.766Z,24.73
2018-04-13T08:29:40.396Z,23.77
2018-04-13T08:32:08.325Z,26.20
2018-04-13T08:34:36.215Z,22.33
2018-04-13T08:37:03.822Z,22.27
2018-04-13T08:39:31.524Z,20.03
2018-04-13T08:41:59.060Z,19.60
2018-04-13T08:44:26.622Z,23.40
2018-04-13T08:46:54.383Z,26.70
2018-04-13T08:49:22.017Z,27.37
2018-04-13T08:51:49.640Z,26.67
2018-04-13T08:54:16.553Z,23.97
2018-04-13T08:56:44.233Z,26.57
2018-04-13T08:59:11.876Z,26.87
2018-04-13T09:01:39.470Z,26.07
2018-04-13T09:04:09.381Z,26.73
2018-04-13T09:06:36.942Z,27.80
2018-04-13T09:09:04.656Z,26.40
2018-04-13T09:11:32.197Z,26.30
2018-04-13T09:13:59.738Z,22.40
2018-04-13T09:16:27.377Z,23.80
2018-04-13T09:18:54.920Z,23.50
2018-04-13T09:21:22.466Z,19.37
2018-04-13T09:23:50.138Z,19.27
2018-04-13T09:26:17.742Z,19.80
2018-04-13T09:28:45.303Z,26.43
2018-04-13T09:31:12.941Z,22.27
2018-04-13T09:33:41.517Z,22.60
2018-04-13T09:36:09.924Z,25.20
2018-04-13T09:38:37.753Z,19.63
2018-04-13T09:41:05.307Z,21.23
2018-04-13T09:43:32.865Z,22.10
2018-04-13T09:46:01.309Z,21.55
2018-04-13T09:48:30.335Z,19.13
2018-04-13T09:50:57.976Z,21.23
2018-04-13T09:53:25.523Z,20.05
2018-04-13T09:55:53.060Z,19.63
2018-04-13T09:58:20.710Z,19.93
2018-04-13T10:00:48.542Z,20.48
2018-04-13T10:03:20.973Z,18.50
2018-04-13T10:05:48.561Z,18.57
2018-04-13T10:08:16.116Z,19.37
2018-04-13T10:10:43.717Z,18.62
2018-04-13T10:13:11.328Z,19.47
2018-04-13T10:15:38.922Z,20.07
2018-04-13T10:18:06.574Z,20.40
2018-04-13T10:20:34.167Z,18.93
2018-04-13T10:23:01.723Z,19.97
2018-04-13T10:25:29.321Z,20.52
2018-04-13T10:27:56.877Z,19.87
2018-04-13T10:30:24.591Z,22.30
2018-04-13T10:32:52.224Z,22.27
2018-04-13T10:35:19.788Z,22.60
2018-04-13T10:37:47.449Z,21.23
2018-04-13T10:40:15.936Z,22.17
2018-04-13T10:42:43.623Z,22.00
2018-04-13T10:45:12.116Z,20.57
2018-04-13T10:47:39.671Z,20.73
2018-04-13T10:50:07.284Z,21.33
2018-04-13T10:52:34.833Z,20.70
2018-04-13T10:55:02.416Z,22.98
2018-04-13T10:57:30.008Z,21.95
2018-04-13T10:59:57.557Z,20.35
2018-04-13T11:02:25.169Z,19.50
2018-04-13T11:04:52.766Z,21.63
2018-04-13T11:07:20.318Z,20.12
2018-04-13T11:09:47.989Z,18.40
2018-04-13T11:12:15.542Z,17.70
2018-04-13T11:14:43.084Z,18.60
2018-04-13T11:17:10.766Z,18.57
2018-04-13T11:19:39.424Z,18.00
2018-04-13T11:22:07.777Z,20.30
2018-04-13T11:24:35.626Z,19.80
2018-04-13T11:27:03.178Z,18.00
2018-04-13T11:29:30.821Z,19.35
2018-04-13T11:31:58.434Z,17.80
2018-04-13T11:34:26.055Z,18.27
2018-04-13T11:36:53.610Z,18.97
2018-04-13T11:39:21.214Z,18.60
2018-04-13T11:41:48.786Z,18.57
2018-04-13T11:44:16.390Z,19.13
2018-04-13T11:46:43.932Z,18.10
2018-04-13T11:49:11.494Z,17.97
2018-04-13T11:51:39.053Z,18.73
2018-04-13T11:54:06.593Z,19.17
2018-04-13T11:56:35.104Z,16.77
2018-04-13T11:59:02.757Z,16.80
2018-04-13T12:01:30.336Z,16.50
2018-04-13T12:03:57.974Z,18.03
2018-04-13T12:06:25.920Z,18.02
2018-04-13T12:08:53.469Z,16.33
2018-04-13T12:11:21.092Z,15.90
2018-04-13T12:13:48.694Z,17.33
2018-04-13T12:16:16.283Z,16.03
2018-04-13T12:18:43.945Z,14.30
2018-04-13T12:21:12.411Z,15.47
2018-04-13T12:23:40.011Z,15.77
2018-04-13T12:26:07.597Z,16.85
2018-04-13T12:28:35.149Z,15.17
2018-04-13T12:31:02.740Z,14.97
2018-04-13T12:33:30.294Z,14.47
2018-04-13T12:35:58.047Z,15.27
2018-04-13T12:38:25.771Z,15.10
2018-04-13T12:40:53.330Z,14.37
2018-04-13T12:43:20.982Z,14.27
2018-04-13T12:45:49.362Z,15.55
2018-04-13T12:48:17.756Z,14.50
2018-04-13T12:50:46.639Z,14.03
2018-04-13T12:53:14.413Z,15.23
2018-04-13T12:55:42.281Z,14.97
2018-04-13T12:58:10.888Z,14.43
2018-04-13T13:00:39.665Z,14.60
2018-04-13T13:03:08.119Z,14.10
2018-04-13T13:05:35.672Z,14.20
2018-04-13T13:08:03.257Z,13.90
2018-04-13T13:10:30.944Z,13.50
2018-04-13T13:12:58.614Z,14.65
2018-04-13T13:15:27.140Z,13.95
2018-04-13T13:17:54.801Z,13.00
2018-04-13T13:20:22.931Z,13.63
2018-04-13T13:22:50.489Z,14.10
2018-04-13T13:25:18.089Z,12.67
2018-04-13T13:27:46.673Z,13.80
2018-04-13T13:30:18.058Z,12.57
2018-04-13T13:32:45.692Z,12.83
2018-04-13T13:35:13.435Z,13.97
2018-04-13T13:37:41.870Z,14.25
2018-04-13T13:40:09.859Z,12.37
2018-04-13T13:42:38.337Z,12.57
2018-04-13T13:45:06.430Z,13.03
2018-04-13T13:47:34.544Z,12.77
2018-04-13T13:50:04.915Z,12.97
2018-04-13T13:52:32.606Z,13.13
2018-04-13T13:55:01.205Z,11.47
2018-04-13T13:57:28.874Z,12.77
2018-04-13T13:59:56.567Z,13.37
2018-04-13T14:02:24.659Z,13.60
2018-04-13T14:04:52.323Z,13.00
2018-04-13T14:07:21.258Z,13.77
2018-04-13T14:09:49.824Z,13.40
2018-04-13T14:12:17.951Z,13.63
2018-04-13T14:14:45.732Z,13.27
2018-04-13T14:17:13.473Z,14.10
2018-04-13T14:19:41.411Z,13.20
2018-04-13T14:22:09.215Z,12.87
2018-04-13T14:24:37.020Z,12.63
2018-04-13T14:27:04.859Z,14.03
2018-04-13T14:29:33.851Z,13.70
2018-04-13T14:32:01.670Z,12.77
2018-04-13T14:34:29.400Z,13.43
2018-04-13T14:36:57.232Z,12.30
2018-04-13T14:39:24.869Z,11.73
2018-04-13T14:41:52.629Z,12.60
2018-04-13T14:44:20.504Z,12.00
2018-04-13T14:46:48.415Z,12.53
2018-04-13T14:49:16.385Z,12.60
2018-04-13T14:51:44.858Z,12.07
2018-04-13T14:54:13.292Z,11.60
2018-04-13T14:56:41.891Z,12.70
2018-04-13T14:59:10.378Z,11.90
2018-04-13T15:01:38.379Z,11.73
2018-04-13T15:04:06.264Z,11.33
2018-04-13T15:06:34.148Z,12.03
2018-04-13T15:09:02.848Z,11.53
2018-04-13T15:11:30.722Z,12.37
2018-04-13T15:13:58.534Z,11.93
2018-04-13T15:16:26.549Z,11.63
2018-04-13T15:18:55.323Z,12.00
2018-04-13T15:21:23.883Z,11.70
2018-04-13T15:23:53.437Z,11.47
2018-04-13T15:26:20.978Z,11.73
2018-04-13T15:28:48.957Z,11.83
2018-04-13T15:31:16.724Z,11.17
2018-04-13T15:33:44.992Z,11.37
2018-04-13T15:36:12.538Z,11.63
2018-04-13T15:38:41.461Z,12.53
2018-04-13T15:41:09.574Z,11.53
2018-04-13T15:43:37.162Z,11.27
2018-04-13T15:46:05.095Z,11.37
2018-04-13T15:48:32.882Z,11.50
2018-04-13T15:51:01.387Z,11.17
2018-04-13T15:53:29.033Z,10.20
2018-04-13T15:55:57.025Z,11.73
2018-04-13T15:58:24.630Z,11.13
2018-04-13T16:00:52.857Z,11.43
2018-04-13T16:03:21.193Z,10.60
2018-04-13T16:05:49.366Z,11.23
2018-04-13T16:08:17.386Z,10.73
2018-04-13T16:10:45.332Z,10.27
2018-04-13T16:13:13.622Z,10.70
2018-04-13T16:15:41.184Z,10.83
2018-04-13T16:18:09.253Z,11.40
2018-04-13T16:20:36.862Z,10.97
2018-04-13T16:23:04.884Z,10.67
2018-04-13T16:25:32.498Z,11.00
2018-04-13T16:28:00.042Z,9.80
2018-04-13T16:30:28.796Z,9.97
2018-04-13T16:32:56.554Z,9.77
2018-04-13T16:35:24.393Z,10.80
2018-04-13T16:37:52.399Z,10.40
2018-04-13T16:40:19.942Z,13.33
2018-04-13T16:42:48.382Z,12.37
2018-04-13T16:45:17.107Z,14.03
2018-04-13T16:47:45.046Z,13.47
2018-04-13T16:50:13.042Z,14.73
2018-04-13T16:52:40.633Z,11.13
2018-04-13T16:55:08.556Z,11.70
2018-04-13T16:57:36.355Z,10.97
2018-04-13T17:00:04.051Z,13.53
2018-04-13T17:02:31.672Z,12.17
2018-04-13T17:04:59.431Z,11.87
2018-04-13T17:07:26.982Z,9.57
2018-04-13T17:09:55.168Z,9.50
2018-04-13T17:12:23.748Z,10.00
2018-04-13T17:14:51.351Z,8.77
2018-04-13T17:17:18.956Z,9.00
2018-04-13T17:19:46.831Z,9.07
2018-04-13T17:22:15.558Z,9.30
2018-04-13T17:24:43.093Z,8.80
2018-04-13T17:27:11.063Z,9.00
2018-04-13T17:29:38.662Z,9.53
2018-04-13T17:32:06.218Z,10.37
2018-04-13T17:34:33.812Z,10.50
2018-04-13T17:37:03.837Z,9.90
2018-04-13T17:39:32.063Z,8.93
2018-04-13T17:42:00.106Z,9.00
2018-04-13T17:44:27.653Z,9.03
2018-04-13T17:46:55.197Z,10.43
2018-04-13T17:49:23.633Z,9.70
2018-04-13T17:51:51.346Z,9.77
2018-04-13T17:54:19.225Z,10.50
2018-04-13T17:56:47.690Z,9.67
2018-04-13T17:59:15.610Z,10.27
2018-04-13T18:01:43.159Z,10.17
2018-04-13T18:04:10.968Z,9.17
2018-04-13T18:06:39.459Z,10.00
2018-04-13T18:09:08.159Z,10.77
2018-04-13T18:11:35.698Z,11.30
2018-04-13T18:14:03.534Z,10.53
2018-04-13T18:16:31.495Z,10.07
2018-04-13T18:18:59.928Z,10.80
2018-04-13T18:21:29.557Z,11.37
2018-04-13T18:23:57.978Z,9.97
2018-04-13T18:26:25.565Z,11.23
2018-04-13T18:28:53.658Z,11.43
2018-04-13T18:31:21.254Z,15.60
2018-04-13T18:33:50.081Z,17.40
2018-04-13T18:36:17.985Z,18.17
2018-04-13T18:38:45.618Z,14.47
2018-04-13T18:41:14.453Z,16.60
2018-04-13T18:43:43.066Z,17.50
2018-04-13T18:46:11.231Z,15.37
2018-04-13T18:48:40.867Z,17.87
2018-04-13T18:51:11.947Z,17.57
2018-04-13T18:53:39.535Z,16.17
2018-04-13T18:56:07.093Z,17.53
2018-04-13T18:58:34.969Z,16.83
2018-04-13T19:01:03.619Z,15.80
2018-04-13T19:03:32.724Z,16.03
2018-04-13T19:06:00.369Z,15.93
2018-04-13T19:08:30.898Z,16.20
2018-04-13T19:10:58.446Z,20.50
2018-04-13T19:13:26.140Z,18.33
2018-04-13T19:15:56.546Z,19.53
2018-04-13T19:18:24.649Z,21.27
2018-04-13T19:20:53.125Z,21.20
2018-04-13T19:23:21.487Z,23.10
2018-04-13T19:25:49.344Z,22.10
2018-04-13T19:28:17.322Z,23.30
2018-04-13T19:30:44.867Z,20.57
2018-04-13T19:33:12.461Z,20.53
2018-04-13T19:35:40.885Z,22.20
2018-04-13T19:38:08.474Z,20.50
2018-04-13T19:40:36.136Z,23.80
2018-04-13T19:43:04.548Z,22.13
2018-04-13T19:45:33.022Z,22.00
2018-04-13T19:48:00.972Z,21.93
2018-04-13T19:50:29.122Z,22.10
2018-04-13T19:52:56.675Z,22.00
2018-04-13T19:55:24.287Z,23.37
2018-04-13T19:57:52.057Z,22.07
2018-04-13T20:00:19.962Z,21.50
2018-04-13T20:02:47.532Z,20.27
2018-04-13T20:05:15.369Z,20.37
2018-04-13T20:07:43.358Z,20.40
2018-04-13T20:10:10.914Z,19.77
2018-04-13T20:12:39.562Z,18.93
2018-04-13T20:15:07.102Z,19.43
2018-04-13T20:17:34.650Z,18.37
2018-04-13T20:20:02.375Z,18.30
2018-04-13T20:22:30.557Z,17.57
2018-04-13T20:24:58.694Z,17.40
2018-04-13T20:27:26.435Z,18.30
2018-04-13T20:29:54.045Z,18.73
2018-04-13T20:32:22.121Z,19.33
2018-04-13T20:34:50.649Z,19.30
2018-04-13T20:37:18.198Z,18.10
2018-04-13T20:39:45.918Z,18.40
2018-04-13T20:42:13.514Z,21.90
2018-04-13T20:44:41.062Z,21.17
2018-04-13T20:47:08.605Z,22.07
2018-04-13T20:49:36.330Z,21.70
2018-04-13T20:52:04.402Z,22.57
2018-04-13T20:54:32.021Z,21.33
2018-04-13T20:57:00.180Z,21.67
2018-04-13T20:59:28.170Z,21.43
2018-04-13T21:01:55.724Z,20.13
2018-04-13T21:04:23.534Z,20.40
2018-04-13T21:06:51.468Z,24.33
2018-04-13T21:09:20.008Z,22.67
2018-04-13T21:11:47.825Z,27.70
2018-04-13T21:14:15.373Z,33.57
2018-04-13T21:16:43.431Z,32.67
2018-04-13T21:19:10.984Z,34.60
2018-04-13T21:21:38.940Z,35.17
2018-04-13T21:24:06.531Z,36.07
2018-04-13T21:26:34.121Z,42.60
2018-04-13T21:29:01.718Z,37.13
2018-04-13T21:31:29.702Z,38.77
2018-04-13T21:33:57.314Z,32.97
2018-04-13T21:36:24.859Z,31.63
2018-04-13T21:38:53.000Z,34.60
2018-04-13T21:41:20.901Z,31.03
2018-04-13T21:43:48.975Z,35.77
2018-04-13T21:46:16.923Z,31.17
2018-04-13T21:48:44.514Z,34.20
2018-04-13T21:51:12.573Z,31.73
2018-04-13T21:53:40.367Z,33.40
2018-04-13T21:56:07.938Z,30.80
2018-04-13T21:58:35.562Z,31.23
2018-04-13T22:01:03.323Z,28.47
2018-04-13T22:03:31.060Z,31.27
2018-04-13T22:05:58.602Z,30.97
2018-04-13T22:08:26.614Z,38.20
2018-04-13T22:10:54.169Z,36.70
2018-04-13T22:13:35.497Z,38.27
2018-04-13T22:16:03.312Z,35.60
2018-04-13T22:18:30.905Z,32.37
2018-04-13T22:20:58.489Z,35.70
2018-04-13T22:23:26.038Z,33.53
2018-04-13T22:25:53.871Z,32.97
2018-04-13T22:28:21.425Z,31.53
2018-04-13T22:30:49.157Z,32.30
2018-04-13T22:33:16.746Z,32.73
2018-04-13T22:35:44.815Z,32.77
2018-04-13T22:38:12.706Z,33.37
2018-04-13T22:40:40.523Z,33.63
2018-04-13T22:43:08.066Z,30.57
2018-04-13T22:45:35.667Z,32.70
2018-04-13T22:48:03.458Z,33.57
2018-04-13T22:50:31.435Z,32.50
2018-04-13T22:53:00.198Z,35.40
2018-04-13T22:55:27.791Z,32.13
2018-04-13T22:57:55.401Z,31.17
2018-04-13T23:00:23.209Z,35.23
2018-04-13T23:02:50.754Z,31.33
2018-04-13T23:05:18.299Z,30.70
2018-04-13T23:07:45.897Z,28.20
2018-04-13T23:10:13.736Z,28.73
2018-04-13T23:12:41.317Z,28.53
2018-04-13T23:15:08.858Z,29.20
2018-04-13T23:17:36.638Z,31.67
2018-04-13T23:20:04.210Z,30.30
2018-04-13T23:22:38.001Z,29.77
2018-04-13T23:25:05.541Z,29.63
2018-04-13T23:27:33.507Z,27.20
2018-04-13T23:30:01.221Z,28.67
2018-04-13T23:32:28.766Z,27.30
2018-04-13T23:34:56.404Z,26.77
2018-04-13T23:37:24.509Z,27.67
2018-04-13T23:39:52.120Z,24.97
2018-04-13T23:42:20.532Z,26.00
2018-04-13T23:44:48.078Z,24.80
2018-04-13T23:47:15.949Z,25.77
2018-04-13T23:49:43.489Z,25.97
2018-04-13T23:52:11.035Z,27.00
2018-04-13T23:54:38.621Z,25.07
2018-04-13T23:57:06.218Z,26.30
2018-04-13T23:59:34.303Z,28.33
